createdAt,value
2022-09-30T00:01:40.997Z,100774.78
2022-09-30T00:04:14.435Z,100773.88
2022-09-30T00:06:42.754Z,100777.34
2022-09-30T00:09:11.439Z,100778.22
2022-09-30T00:11:40.317Z,100781.72
2022-09-30T00:14:14.981Z,100791.31
2022-09-30T00:16:43.700Z,100782.59
2022-09-30T00:19:12.778Z,100786.97
2022-09-30T00:21:41.375Z,100785.22
2022-09-30T00:24:10.021Z,100787.81
2022-09-30T00:26:38.382Z,100780.00
2022-09-30T00:29:07.006Z,100774.78
2022-09-30T00:31:37.654Z,100779.13
2022-09-30T00:34:09.102Z,100774.75
2022-09-30T00:36:43.561Z,100769.50
2022-09-30T00:39:14.936Z,100775.56
2022-09-30T00:41:43.677Z,100768.56
2022-09-30T00:44:52.598Z,100765.84
2022-09-30T00:47:43.441Z,100755.38
2022-09-30T00:50:26.180Z,100757.94
2022-09-30T00:53:01.873Z,100757.94
2022-09-30T00:55:48.313Z,100770.97
2022-09-30T00:58:25.232Z,100770.03
2022-09-30T01:00:53.493Z,100785.72
2022-09-30T01:03:24.401Z,100791.00
2022-09-30T01:05:53.357Z,100790.16
2022-09-30T01:08:23.312Z,100780.63
2022-09-30T01:10:51.575Z,100780.66
2022-09-30T01:13:22.405Z,100787.66
2022-09-30T01:16:07.703Z,100786.84
2022-09-30T01:18:54.522Z,100779.91
2022-09-30T01:22:00.098Z,100786.00
2022-09-30T01:25:11.468Z,100776.38
2022-09-30T01:28:10.834Z,100783.38
2022-09-30T01:30:57.329Z,100785.06
2022-09-30T01:33:40.727Z,100777.19
2022-09-30T01:36:26.266Z,100780.66
2022-09-30T01:39:08.328Z,100782.38
2022-09-30T01:41:46.201Z,100778.00
2022-09-30T01:44:19.136Z,100768.38
2022-09-30T01:46:55.266Z,100777.97
2022-09-30T01:49:33.608Z,100781.44
2022-09-30T01:52:08.479Z,100786.66
2022-09-30T01:54:43.650Z,100787.53
2022-09-30T01:57:20.242Z,100780.56
2022-09-30T01:59:53.958Z,100780.50
2022-09-30T02:02:27.611Z,100791.78
2022-09-30T02:05:01.162Z,100792.56
2022-09-30T02:07:35.212Z,100789.06
2022-09-30T02:10:10.513Z,100795.97
2022-09-30T02:12:48.089Z,100785.47
2022-09-30T02:15:23.142Z,100801.13
2022-09-30T02:17:58.295Z,100788.91
2022-09-30T02:20:29.471Z,100800.22
2022-09-30T02:23:05.874Z,100796.75
2022-09-30T02:25:39.906Z,100795.88
2022-09-30T02:28:13.711Z,100795.84
2022-09-30T02:30:46.989Z,100795.81
2022-09-30T02:33:22.842Z,100800.97
2022-09-30T02:35:57.602Z,100798.34
2022-09-30T02:38:36.976Z,100800.94
2022-09-30T02:41:10.446Z,100812.25
2022-09-30T02:43:42.053Z,100808.78
2022-09-30T02:46:19.976Z,100804.41
2022-09-30T02:48:58.273Z,100812.25
2022-09-30T02:51:36.793Z,100817.47
2022-09-30T02:54:17.670Z,100822.63
2022-09-30T02:56:53.253Z,100822.56
2022-09-30T02:59:22.339Z,100814.69
2022-09-30T03:01:50.742Z,100826.00
2022-09-30T03:04:26.265Z,100826.81
2022-09-30T03:06:55.456Z,100826.81
2022-09-30T03:09:27.071Z,100829.38
2022-09-30T03:12:04.308Z,100824.13
2022-09-30T03:14:52.717Z,100821.47
2022-09-30T03:17:39.703Z,100830.13
2022-09-30T03:20:30.189Z,100829.25
2022-09-30T03:23:21.323Z,100824.88
2022-09-30T03:26:01.194Z,100821.31
2022-09-30T03:28:34.565Z,100824.78
2022-09-30T03:31:11.525Z,100824.69
2022-09-30T03:33:50.516Z,100824.63
2022-09-30T03:36:29.422Z,100830.66
2022-09-30T03:39:06.863Z,100836.72
2022-09-30T03:41:41.846Z,100840.13
2022-09-30T03:44:17.926Z,100839.22
2022-09-30T03:46:51.741Z,100847.00
2022-09-30T03:49:24.606Z,100843.50
2022-09-30T03:51:58.534Z,100836.47
2022-09-30T03:54:27.764Z,100846.00
2022-09-30T03:56:55.878Z,100847.69
2022-09-30T03:59:28.557Z,100843.25
2022-09-30T04:01:57.610Z,100846.75
2022-09-30T04:04:25.989Z,100851.00
2022-09-30T04:06:55.487Z,100848.34
2022-09-30T04:09:24.508Z,100846.53
2022-09-30T04:11:52.905Z,100841.28
2022-09-30T04:14:20.991Z,100838.66
2022-09-30T04:16:53.192Z,100838.56
2022-09-30T04:19:22.565Z,100844.63
2022-09-30T04:21:53.831Z,100849.78
2022-09-30T04:24:24.639Z,100842.81
2022-09-30T04:26:53.146Z,100848.81
2022-09-30T04:29:21.297Z,100853.06
2022-09-30T04:31:49.463Z,100852.19
2022-09-30T04:34:17.658Z,100863.44
2022-09-30T04:36:45.945Z,100859.91
2022-09-30T04:39:14.153Z,100862.56
2022-09-30T04:41:43.733Z,100871.22
2022-09-30T04:44:13.156Z,100870.34
2022-09-30T04:46:41.436Z,100876.38
2022-09-30T04:49:09.750Z,100881.50
2022-09-30T04:51:43.824Z,100887.56
2022-09-30T04:54:11.941Z,100885.84
2022-09-30T04:56:40.184Z,100878.84
2022-09-30T04:59:09.802Z,100877.94
2022-09-30T05:01:39.269Z,100883.94
2022-09-30T05:04:08.207Z,100897.75
2022-09-30T05:06:36.355Z,100899.53
2022-09-30T05:09:04.768Z,100907.28
2022-09-30T05:11:32.973Z,100905.56
2022-09-30T05:14:01.407Z,100897.69
2022-09-30T05:16:30.939Z,100903.75
2022-09-30T05:18:59.110Z,100896.75
2022-09-30T05:21:27.291Z,100902.88
2022-09-30T05:23:55.645Z,100909.00
2022-09-30T05:26:23.776Z,100907.34
2022-09-30T05:28:51.934Z,100906.47
2022-09-30T05:31:20.887Z,100900.56
2022-09-30T05:33:53.551Z,100898.03
2022-09-30T05:36:25.505Z,100908.56
2022-09-30T05:38:54.241Z,100896.50
2022-09-30T05:41:23.011Z,100894.91
2022-09-30T05:43:51.764Z,100901.13
2022-09-30T05:46:21.583Z,100906.47
2022-09-30T05:48:54.744Z,100910.06
2022-09-30T05:51:23.165Z,100904.13
2022-09-30T05:53:54.002Z,100911.19
2022-09-30T05:56:22.304Z,100905.22
2022-09-30T05:58:50.981Z,100905.28
2022-09-30T06:01:19.252Z,100909.69
2022-09-30T06:03:47.876Z,100912.34
2022-09-30T06:06:19.119Z,100919.41
2022-09-30T06:08:47.806Z,100920.28
2022-09-30T06:11:18.742Z,100928.22
2022-09-30T06:13:49.197Z,100925.72
2022-09-30T06:16:19.045Z,100922.25
2022-09-30T06:18:47.741Z,100924.06
2022-09-30T06:21:19.423Z,100932.88
2022-09-30T06:23:47.731Z,100932.94
2022-09-30T06:26:16.430Z,100932.97
2022-09-30T06:28:45.240Z,100936.50
2022-09-30T06:31:13.610Z,100936.56
2022-09-30T06:33:42.529Z,100944.47
2022-09-30T06:36:10.840Z,100940.19
2022-09-30T06:38:40.535Z,100945.44
2022-09-30T06:41:09.732Z,100949.00
2022-09-30T06:43:41.354Z,100951.63
2022-09-30T06:46:17.645Z,100953.38
2022-09-30T06:48:48.601Z,100956.97
2022-09-30T06:51:17.021Z,100955.25
2022-09-30T06:53:49.010Z,100957.91
2022-09-30T06:56:21.213Z,100963.22
2022-09-30T06:58:49.491Z,100963.31
2022-09-30T07:01:17.620Z,100958.13
2022-09-30T07:03:51.433Z,100959.97
2022-09-30T07:06:22.170Z,100949.59
2022-09-30T07:08:51.653Z,100953.19
2022-09-30T07:11:19.745Z,100955.91
2022-09-30T07:13:49.600Z,100953.41
2022-09-30T07:16:21.230Z,100956.97
2022-09-30T07:18:49.597Z,100955.34
2022-09-30T07:21:17.768Z,100954.53
2022-09-30T07:23:47.704Z,100955.50
2022-09-30T07:26:19.714Z,100953.84
2022-09-30T07:28:48.271Z,100955.66
2022-09-30T07:31:32.373Z,100945.25
2022-09-30T07:34:01.551Z,100953.16
2022-09-30T07:36:33.579Z,100941.84
2022-09-30T07:39:06.783Z,100948.00
2022-09-30T07:41:40.084Z,100937.59
2022-09-30T07:44:13.177Z,100934.13
2022-09-30T07:46:42.364Z,100944.66
2022-09-30T07:49:16.673Z,100941.22
2022-09-30T07:51:45.610Z,100942.13
2022-09-30T07:54:16.594Z,100949.19
2022-09-30T07:59:37.494Z,100955.31
2022-09-30T08:02:06.793Z,100948.34
2022-09-30T08:04:35.993Z,100958.00
2022-09-30T08:07:06.123Z,100946.66
2022-09-30T08:09:34.927Z,100948.41
2022-09-30T08:12:05.817Z,100949.31
2022-09-30T08:14:34.032Z,100947.59
2022-09-30T08:17:02.515Z,100957.19
2022-09-30T08:19:33.668Z,100958.09
2022-09-30T08:24:31.385Z,100962.50
2022-09-30T08:27:00.045Z,100958.09
2022-09-30T08:29:53.224Z,100958.97
2022-09-30T08:32:18.237Z,100952.81
2022-09-30T08:34:46.359Z,100950.16
2022-09-30T08:37:14.415Z,100955.41
2022-09-30T08:39:43.464Z,100956.25
2022-09-30T08:42:37.286Z,100950.94
2022-09-30T08:45:21.573Z,100954.38
2022-09-30T08:48:00.313Z,100954.34
2022-09-30T08:50:39.466Z,100951.66
2022-09-30T08:53:18.946Z,100948.09
2022-09-30T08:55:47.711Z,100945.41
2022-09-30T08:58:25.097Z,100940.09
2022-09-30T09:01:01.041Z,100943.53
2022-09-30T09:03:31.791Z,100936.41
2022-09-30T09:06:22.106Z,100945.09
2022-09-30T09:09:12.758Z,100945.00
2022-09-30T09:11:56.031Z,100944.84
2022-09-30T09:14:39.286Z,100953.53
2022-09-30T09:17:26.042Z,100945.56
2022-09-30T09:20:03.112Z,100941.13
2022-09-30T09:22:33.138Z,100949.75
2022-09-30T09:25:03.278Z,100947.91
2022-09-30T09:27:46.362Z,100958.31
2022-09-30T09:30:17.416Z,100957.34
2022-09-30T09:32:53.391Z,100949.38
2022-09-30T09:35:37.982Z,100942.28
2022-09-30T09:38:26.874Z,100948.34
2022-09-30T09:41:11.014Z,100950.94
2022-09-30T09:44:00.354Z,100946.47
2022-09-30T09:46:32.335Z,100948.91
2022-09-30T09:49:35.083Z,100961.09
2022-09-30T09:52:49.130Z,100969.88
2022-09-30T09:55:22.839Z,100968.94
2022-09-30T09:58:07.576Z,100963.50
2022-09-30T10:00:58.968Z,100957.25
2022-09-30T10:03:28.671Z,100966.03
2022-09-30T10:06:09.043Z,100966.03
2022-09-30T10:08:39.706Z,100958.91
2022-09-30T10:11:19.301Z,100955.25
2022-09-30T10:13:47.826Z,100958.66
2022-09-30T10:16:32.494Z,100954.06
2022-09-30T10:19:03.132Z,100957.38
2022-09-30T10:21:35.561Z,100960.72
2022-09-30T10:24:24.663Z,100957.19
2022-09-30T10:26:52.810Z,100952.72
2022-09-30T10:29:29.954Z,100956.19
2022-09-30T10:32:00.458Z,100951.69
2022-09-30T10:34:31.758Z,100955.91
2022-09-30T10:37:09.253Z,100949.63
2022-09-30T10:39:40.175Z,100948.59
2022-09-30T10:42:17.432Z,100944.03
2022-09-30T10:44:50.391Z,100946.50
2022-09-30T10:47:21.842Z,100939.22
2022-09-30T10:49:52.955Z,100933.66
2022-09-30T10:52:25.861Z,100940.38
2022-09-30T10:54:56.607Z,100941.00
2022-09-30T10:57:28.832Z,100935.41
2022-09-30T11:00:01.614Z,100934.06
2022-09-30T11:02:35.558Z,100922.31
2022-09-30T11:05:13.602Z,100913.41
2022-09-30T11:07:48.021Z,100921.44
2022-09-30T11:10:32.853Z,100918.09
2022-09-30T11:13:08.667Z,100919.16
2022-09-30T11:15:46.919Z,100923.69
2022-09-30T11:18:25.038Z,100919.06
2022-09-30T11:20:58.440Z,100919.03
2022-09-30T11:23:33.884Z,100912.69
2022-09-30T11:26:09.135Z,100899.84
2022-09-30T11:28:55.105Z,100911.31
2022-09-30T11:31:32.593Z,100910.59
2022-09-30T11:34:20.072Z,100898.44
2022-09-30T11:36:59.889Z,100893.19
2022-09-30T11:39:59.231Z,100893.63
2022-09-30T11:42:37.592Z,100894.09
2022-09-30T11:45:23.437Z,100893.44
2022-09-30T11:48:13.526Z,100893.56
2022-09-30T11:50:55.990Z,100891.50
2022-09-30T11:53:39.943Z,100894.97
2022-09-30T11:56:27.253Z,100891.97
2022-09-30T11:59:00.321Z,100888.09
2022-09-30T12:01:33.614Z,100878.22
2022-09-30T12:04:09.016Z,100882.81
2022-09-30T12:06:41.882Z,100884.63
2022-09-30T12:09:19.609Z,100883.91
2022-09-30T12:11:57.004Z,100870.56
2022-09-30T12:14:32.995Z,100863.59
2022-09-30T12:17:04.539Z,100873.25
2022-09-30T12:19:37.770Z,100870.34
2022-09-30T12:22:13.054Z,100869.03
2022-09-30T12:24:45.595Z,100867.19
2022-09-30T12:27:23.677Z,100857.09
2022-09-30T12:30:17.553Z,100862.25
2022-09-30T12:33:22.211Z,100865.59
2022-09-30T12:36:40.005Z,100854.09
2022-09-30T12:39:52.807Z,100846.25
2022-09-30T12:42:43.932Z,100850.34
2022-09-30T12:46:04.602Z,100849.84
2022-09-30T12:48:39.302Z,100837.16
2022-09-30T12:51:08.498Z,100834.28
2022-09-30T12:53:40.074Z,100841.13
2022-09-30T12:56:11.100Z,100833.41
2022-09-30T12:58:53.088Z,100837.97
2022-09-30T13:01:25.760Z,100831.03
2022-09-30T13:04:18.487Z,100821.97
2022-09-30T13:07:14.160Z,100833.66
2022-09-30T13:10:26.112Z,100827.88
2022-09-30T13:13:24.602Z,100831.16
2022-09-30T13:15:56.226Z,100828.09
2022-09-30T13:19:03.124Z,100830.91
2022-09-30T13:21:33.725Z,100828.50
2022-09-30T13:24:02.200Z,100824.28
2022-09-30T13:26:43.095Z,100828.66
2022-09-30T13:29:38.338Z,100822.66
2022-09-30T13:32:10.528Z,100815.25
2022-09-30T13:34:58.810Z,100810.84
2022-09-30T13:37:39.489Z,100812.69
2022-09-30T13:40:32.928Z,100806.81
2022-09-30T13:43:16.584Z,100808.97
2022-09-30T13:45:47.037Z,100802.81
2022-09-30T13:48:20.482Z,100797.72
2022-09-30T13:50:52.648Z,100802.72
2022-09-30T13:53:31.083Z,100797.56
2022-09-30T13:56:02.555Z,100791.25
2022-09-30T13:59:19.268Z,100785.22
2022-09-30T14:02:10.102Z,100789.38
2022-09-30T14:05:08.695Z,100794.38
2022-09-30T14:07:51.418Z,100785.75
2022-09-30T14:10:40.076Z,100789.22
2022-09-30T14:13:25.858Z,100786.41
2022-09-30T14:16:14.008Z,100779.22
2022-09-30T14:19:13.430Z,100787.66
2022-09-30T14:21:48.155Z,100788.38
2022-09-30T14:24:23.961Z,100778.19
2022-09-30T14:27:19.425Z,100776.63
2022-09-30T14:30:01.452Z,100779.56
2022-09-30T14:32:32.804Z,100772.06
2022-09-30T14:35:06.225Z,100771.81
2022-09-30T14:37:40.730Z,100773.28
2022-09-30T14:40:14.009Z,100776.59
2022-09-30T14:42:44.310Z,100762.63
2022-09-30T14:45:22.238Z,100767.19
2022-09-30T14:47:52.918Z,100756.91
2022-09-30T14:50:26.014Z,100757.13
2022-09-30T14:52:58.776Z,100742.25
2022-09-30T14:55:31.662Z,100754.94
2022-09-30T14:58:28.429Z,100752.75
2022-09-30T15:01:07.059Z,100743.88
2022-09-30T15:03:38.026Z,100741.94
2022-09-30T15:06:08.215Z,100738.34
2022-09-30T15:08:37.735Z,100742.84
2022-09-30T15:11:06.364Z,100746.66
2022-09-30T15:13:36.047Z,100736.25
2022-09-30T15:16:04.246Z,100731.09
2022-09-30T15:18:36.433Z,100741.88
2022-09-30T15:21:12.098Z,100727.78
2022-09-30T15:23:46.878Z,100729.63
2022-09-30T15:26:16.185Z,100732.94
2022-09-30T15:28:44.419Z,100728.13
2022-09-30T15:31:23.663Z,100726.78
2022-09-30T15:34:06.832Z,100732.41
2022-09-30T15:36:37.171Z,100732.13
2022-09-30T15:39:13.864Z,100734.97
2022-09-30T15:41:42.430Z,100731.72
2022-09-30T15:44:19.973Z,100736.56
2022-09-30T15:47:04.334Z,100732.22
2022-09-30T15:49:36.262Z,100746.00
2022-09-30T15:52:39.000Z,100749.56
2022-09-30T15:55:42.252Z,100746.22
2022-09-30T15:58:37.911Z,100749.09
2022-09-30T16:01:19.570Z,100734.44
2022-09-30T16:03:54.196Z,100743.66
2022-09-30T16:06:27.612Z,100747.19
2022-09-30T16:09:02.218Z,100747.91
2022-09-30T16:11:36.679Z,100741.28
2022-09-30T16:14:10.119Z,100750.31
2022-09-30T16:16:40.066Z,100742.38
2022-09-30T16:19:16.902Z,100754.56
2022-09-30T16:21:50.916Z,100748.91
2022-09-30T16:24:50.200Z,100754.69
2022-09-30T16:27:32.601Z,100751.56
2022-09-30T16:30:01.610Z,100745.69
2022-09-30T16:32:33.902Z,100751.28
2022-09-30T16:35:02.295Z,100750.66
2022-09-30T16:37:30.881Z,100749.06
2022-09-30T16:40:17.115Z,100740.56
2022-09-30T16:42:46.778Z,100746.94
2022-09-30T16:45:16.085Z,100744.56
2022-09-30T16:47:44.826Z,100737.78
2022-09-30T16:50:25.014Z,100741.63
2022-09-30T16:52:53.100Z,100735.78
2022-09-30T16:55:21.415Z,100738.66
2022-09-30T16:57:51.004Z,100739.69
2022-09-30T17:00:19.793Z,100740.72
2022-09-30T17:02:50.287Z,100738.16
2022-09-30T17:05:20.737Z,100735.69
2022-09-30T17:07:53.332Z,100726.19
2022-09-30T17:10:25.624Z,100729.03
2022-09-30T17:12:55.227Z,100731.88
2022-09-30T17:15:24.135Z,100725.94
2022-09-30T17:17:52.746Z,100726.13
2022-09-30T17:20:21.285Z,100724.59
2022-09-30T17:22:50.202Z,100717.69
2022-09-30T17:25:20.301Z,100714.31
2022-09-30T17:27:50.182Z,100712.69
2022-09-30T17:30:20.391Z,100715.44
2022-09-30T17:32:48.881Z,100715.53
2022-09-30T17:35:17.535Z,100702.50
2022-09-30T17:37:46.685Z,100715.69
2022-09-30T17:40:32.738Z,100708.81
2022-09-30T17:43:11.019Z,100710.69
2022-09-30T17:45:43.283Z,100708.19
2022-09-30T17:48:13.487Z,100695.94
2022-09-30T17:50:45.206Z,100704.81
2022-09-30T17:53:16.814Z,100704.00
2022-09-30T17:55:47.376Z,100707.59
2022-09-30T17:58:16.778Z,100697.13
2022-09-30T18:00:47.486Z,100705.94
2022-09-30T18:03:15.657Z,100701.63
2022-09-30T18:05:45.445Z,100697.25
2022-09-30T18:08:13.777Z,100687.69
2022-09-30T18:10:41.873Z,100690.41
2022-09-30T18:13:11.466Z,100693.97
2022-09-30T18:15:40.394Z,100689.63
2022-09-30T18:18:09.770Z,100692.34
2022-09-30T18:20:38.300Z,100692.41
2022-09-30T18:23:06.472Z,100695.09
2022-09-30T18:25:34.708Z,100696.06
2022-09-30T18:28:03.949Z,100696.09
2022-09-30T18:30:32.150Z,100694.41
2022-09-30T18:33:00.273Z,100701.50
2022-09-30T18:35:30.189Z,100697.16
2022-09-30T18:37:58.606Z,100688.44
2022-09-30T18:40:28.332Z,100685.81
2022-09-30T18:42:59.333Z,100679.72
2022-09-30T18:45:28.450Z,100674.56
2022-09-30T18:47:58.807Z,100671.09
2022-09-30T18:50:30.491Z,100667.66
2022-09-30T18:53:02.089Z,100664.16
2022-09-30T18:55:32.227Z,100659.78
2022-09-30T18:58:00.356Z,100654.56
2022-09-30T19:00:31.208Z,100647.56
2022-09-30T19:02:59.505Z,100644.94
2022-09-30T19:05:29.974Z,100632.66
2022-09-30T19:07:58.079Z,100640.53
2022-09-30T19:10:26.356Z,100637.91
2022-09-30T19:12:54.458Z,100632.69
2022-09-30T19:15:23.535Z,100624.81
2022-09-30T19:17:53.072Z,100622.19
2022-09-30T19:20:21.696Z,100612.56
2022-09-30T19:22:52.275Z,100613.41
2022-09-30T19:25:20.685Z,100609.00
2022-09-30T19:27:49.528Z,100609.00
2022-09-30T19:30:17.757Z,100600.19
2022-09-30T19:32:46.300Z,100593.16
2022-09-30T19:35:14.735Z,100599.28
2022-09-30T19:37:55.002Z,100590.50
2022-09-30T19:43:06.856Z,100594.84
2022-09-30T19:45:35.175Z,100600.06
2022-09-30T19:48:03.327Z,100585.16
2022-09-30T19:50:31.418Z,100581.63
2022-09-30T19:52:59.998Z,100574.63
2022-09-30T19:55:30.252Z,100581.63
2022-09-30T19:57:59.333Z,100571.09
2022-09-30T20:00:27.442Z,100568.47
2022-09-30T20:02:56.206Z,100570.19
2022-09-30T20:05:24.353Z,100557.06
2022-09-30T20:07:53.416Z,100551.75
2022-09-30T20:10:21.553Z,100549.97
2022-09-30T20:12:51.139Z,100540.34
2022-09-30T20:15:37.354Z,100547.31
2022-09-30T20:18:05.877Z,100542.03
2022-09-30T20:20:38.422Z,100534.09
2022-09-30T20:23:06.555Z,100529.66
2022-09-30T20:25:36.345Z,100520.00
2022-09-30T20:28:06.961Z,100515.59
2022-09-30T20:30:42.806Z,100505.97
2022-09-30T20:33:10.919Z,100506.81
2022-09-30T20:35:39.136Z,100506.81
2022-09-30T20:38:10.883Z,100499.78
2022-09-30T20:40:40.005Z,100501.53
2022-09-30T20:43:10.237Z,100502.41
2022-09-30T20:45:41.374Z,100502.41
2022-09-30T20:48:09.741Z,100500.63
2022-09-30T20:50:43.394Z,100491.88
2022-09-30T20:53:14.627Z,100490.94
2022-09-30T20:55:44.563Z,100496.22
2022-09-30T20:58:14.606Z,100490.06
2022-09-30T21:00:44.255Z,100479.53
2022-09-30T21:03:14.777Z,100484.81
2022-09-30T21:05:52.977Z,100479.53
2022-09-30T21:08:21.220Z,100473.34
2022-09-30T21:10:49.306Z,100479.41
2022-09-30T21:13:19.050Z,100475.88
2022-09-30T21:15:47.267Z,100465.31
2022-09-30T21:18:15.493Z,100466.13
2022-09-30T21:20:43.600Z,100460.78
2022-09-30T21:23:12.781Z,100466.00
2022-09-30T21:25:43.284Z,100456.34
2022-09-30T21:28:11.390Z,100452.81
2022-09-30T21:30:42.224Z,100450.16
2022-09-30T21:33:10.288Z,100453.63
2022-09-30T21:35:38.472Z,100450.94
2022-09-30T21:38:06.676Z,100455.34
2022-09-30T21:40:34.861Z,100451.78
2022-09-30T21:43:04.409Z,100445.59
2022-09-30T21:45:32.581Z,100452.59
2022-09-30T21:48:07.350Z,100444.63
2022-09-30T21:50:36.174Z,100433.13
2022-09-30T21:53:04.616Z,100433.06
2022-09-30T21:55:33.414Z,100430.38
2022-09-30T21:58:01.512Z,100426.75
2022-09-30T22:00:29.685Z,100431.09
2022-09-30T22:02:58.804Z,100424.00
2022-09-30T22:05:28.304Z,100416.97
2022-09-30T22:07:59.444Z,100416.97
2022-09-30T22:10:27.794Z,100406.34
2022-09-30T22:12:55.950Z,100407.25
2022-09-30T22:15:24.140Z,100406.34
2022-09-30T22:17:52.507Z,100405.50
2022-09-30T22:20:21.381Z,100401.09
2022-09-30T22:22:50.870Z,100393.16
2022-09-30T22:25:20.372Z,100376.47
2022-09-30T22:27:48.505Z,100385.16
2022-09-30T22:30:16.850Z,100391.28
2022-09-30T22:32:45.002Z,100380.72
2022-09-30T22:35:30.938Z,100377.22
2022-09-30T22:38:18.253Z,100386.00
2022-09-30T22:40:46.500Z,100385.06
2022-09-30T22:43:15.264Z,100379.75
2022-09-30T22:45:43.879Z,100378.91
2022-09-30T22:48:12.028Z,100386.75
2022-09-30T22:50:40.453Z,100385.03
2022-09-30T22:53:09.969Z,100383.34
2022-09-30T22:55:38.193Z,100393.06
2022-09-30T22:58:06.328Z,100387.09
2022-09-30T23:00:34.413Z,100383.91
2022-09-30T23:03:03.549Z,100400.84
2022-09-30T23:05:39.199Z,100397.66
2022-09-30T23:08:07.319Z,100400.63
2022-09-30T23:10:38.448Z,100400.97
2022-09-30T23:13:08.863Z,100403.00
2022-09-30T23:15:36.962Z,100405.84
2022-09-30T23:18:05.142Z,100408.66
2022-09-30T23:20:33.237Z,100404.41
2022-09-30T23:23:01.342Z,100390.50
2022-09-30T23:25:29.489Z,100399.34
2022-09-30T23:27:59.153Z,100381.03
2022-09-30T23:30:27.841Z,100388.13
2022-09-30T23:32:55.861Z,100379.44
2022-09-30T23:35:24.058Z,100376.91
2022-09-30T23:37:52.926Z,100370.84
2022-09-30T23:40:21.025Z,100361.25
2022-09-30T23:42:50.439Z,100363.91
2022-09-30T23:45:19.897Z,100356.06
2022-09-30T23:47:49.252Z,100351.69
2022-09-30T23:50:17.466Z,100349.09
2022-09-30T23:52:45.628Z,100349.09
2022-09-30T23:55:13.720Z,100337.75
2022-09-30T23:57:42.157Z,100335.13
